메인 페이지
METAR-TAF:

METAR-TAF

공항 :

상조제두스캄푸스, 상파울루, 브라질

위도: 23-14S, 경도: 045-52W, 고도: 646m

현재 날씨관측

예보는 3 시간 31분 전, 03:00시(UTC)에 발표되었습니다.
5kt
온도 17°C
습도 77%
기압 1025 hPa
시정 10km 이상
고도 3000ft 상공 구름 많음

METAR: SBSJ 230300Z 10005KT 9999 BKN030 17/13 Q1025

시각: 03:31 (06:31 UTC)

예보

예보는 4 시간 31분 전, 02:00시(UTC)에 발표되었습니다.
예보 대상 시간: 23일 06시부터 23일 18시까지 (UTC)
남남동5kt
시정: 8000m
고도 1300ft 상공 구름 많음
일시적
23일 06시부터 23일 12시까지 (UTC)
시정: 3000m
고도 700ft 상공 구름 많음
고도 2000ft 상공 구름 많음
이슬비, 박무

TAF: SBSJ 230200Z 2306/2318 16005KT 8000 BKN013 TN13/2309Z TX22/2317Z TEMPO 2306/2312 3000 DZ BR BKN007 BKN020 RMK PGD

4,000개 이상의 공항 관측 자료 및 예보 (METAR 및 TAF 보고).

지도상에서 검색 가능한 기상관측소가 노란 점과 빨간 점으로 표시되어 있습니다.

기상관측소 명을 보려면 표시 위로 마우스를 이동하세요.

날씨 관측과 예보를 보려면 클릭하세요.

지도 변경 : 확대하려면 엑스 표시가 있는 녹색 버튼, 축소하려면 빼기 표시가 있는 녹색 버튼, 다음 페이지의 지도를 보려면 녹색 화살표를 클릭하세요.


METAR-TAF: